Time;durP1;ratioP1;P1;durP2;ratioP2;P2;SDS_P1;SDS_P2;PMS_P1;PMS_P2;Temp;Humidity;BMP_temperature;BMP_pressure;BME280_temperature;BME280_humidity;BME280_pressure;Samples;Min_cycle;Max_cycle;Signal;HPM_P1;HPM_P2
2023/01/12 00:01:40;;;;;;;4.25;1.85;;;;;;;1.30;100.00;94334.50;5051091;28;20041;-66
2023/01/12 00:04:07;;;;;;;5.68;1.98;;;;;;;1.26;100.00;94339.81;5033216;28;20051;-66
2023/01/12 00:06:34;;;;;;;7.57;1.80;;;;;;;1.24;100.00;94331.25;5032708;28;20158;-66
2023/01/12 00:09:03;;;;;;;3.95;1.77;;;;;;;1.19;100.00;94336.94;5050986;28;20049;-67
2023/01/12 00:11:30;;;;;;;7.07;2.17;;;;;;;1.16;100.00;94337.63;5050440;28;20515;-66
2023/01/12 00:13:57;;;;;;;4.82;1.40;;;;;;;1.10;100.00;94339.78;5050928;28;20535;-67
2023/01/12 00:16:34;;;;;;;4.18;1.42;;;;;;;0.95;100.00;94335.91;5050756;28;20058;-67
2023/01/12 00:19:02;;;;;;;5.53;1.40;;;;;;;1.03;100.00;94330.69;5038103;28;20094;-66
2023/01/12 00:21:33;;;;;;;4.20;1.40;;;;;;;0.81;100.00;94327.41;5050397;28;20045;-67
2023/01/12 00:23:59;;;;;;;7.00;1.85;;;;;;;0.89;100.00;94326.47;5050857;28;20043;-67
2023/01/12 00:26:26;;;;;;;5.20;2.10;;;;;;;0.90;100.00;94335.34;5050355;28;20055;-67
2023/01/12 00:28:53;;;;;;;6.90;1.80;;;;;;;0.81;100.00;94340.91;5051803;28;20041;-67
2023/01/12 00:31:19;;;;;;;5.13;1.50;;;;;;;0.84;100.00;94342.91;5051648;28;20102;-66
2023/01/12 00:33:46;;;;;;;4.65;1.63;;;;;;;0.84;100.00;94332.09;5051892;28;20048;-66
2023/01/12 00:36:16;;;;;;;4.75;1.80;;;;;;;0.73;100.00;94337.22;5050025;28;20383;-67
2023/01/12 00:38:43;;;;;;;4.82;1.67;;;;;;;0.79;100.00;94329.66;5033067;28;20039;-67
2023/01/12 00:46:50;;;;;;;7.50;2.10;;;;;;;0.87;100.00;94328.72;5026177;28;20705;-66
2023/01/12 00:49:17;;;;;;;5.95;2.30;;;;;;;0.84;100.00;94339.44;5049281;28;20158;-65
2023/01/12 00:51:44;;;;;;;8.45;2.03;;;;;;;0.87;100.00;94336.06;5049906;28;20047;-65
2023/01/12 00:54:11;;;;;;;5.57;2.40;;;;;;;0.99;100.00;94341.41;5049964;28;20055;-67
2023/01/12 00:56:38;;;;;;;39.57;15.23;;;;;;;1.07;100.00;94335.06;5032610;28;20049;-67
2023/01/12 00:59:04;;;;;;;9.82;3.80;;;;;;;1.08;100.00;94342.03;5032829;28;20057;-66
2023/01/12 01:01:33;;;;;;;8.15;3.05;;;;;;;1.22;100.00;94338.16;5049501;28;20383;-66
2023/01/12 01:04:00;;;;;;;9.65;2.60;;;;;;;1.29;100.00;94335.63;5049931;28;20079;-66
2023/01/12 01:06:26;;;;;;;7.80;2.17;;;;;;;1.34;100.00;94341.56;5049618;28;20049;-66
2023/01/12 01:08:53;;;;;;;6.70;2.37;;;;;;;1.41;100.00;94346.41;5032710;28;20057;-66
2023/01/12 01:11:20;;;;;;;8.50;2.30;;;;;;;1.49;100.00;94345.47;5049730;28;20451;-66
2023/01/12 01:13:47;;;;;;;9.10;2.75;;;;;;;1.56;100.00;94342.91;5050124;28;20049;-66
2023/01/12 01:16:16;;;;;;;10.55;2.90;;;;;;;1.57;100.00;94336.38;5048748;28;20046;-66
2023/01/12 01:18:43;;;;;;;7.75;2.20;;;;;;;1.52;100.00;94341.25;5050333;28;20397;-66
2023/01/12 01:21:12;;;;;;;6.60;1.97;;;;;;;1.55;100.00;94346.78;5031807;28;20049;-66
2023/01/12 01:23:40;;;;;;;7.35;1.92;;;;;;;1.72;100.00;94342.16;5049166;28;20044;-66
2023/01/12 01:26:10;;;;;;;6.40;2.38;;;;;;;1.78;100.00;94343.47;5049675;28;20045;-66
2023/01/12 01:28:36;;;;;;;9.48;2.35;;;;;;;1.80;100.00;94339.28;5049196;28;20935;-66
2023/01/12 01:31:07;;;;;;;7.90;2.10;;;;;;;1.83;100.00;94334.28;5050233;28;20451;-67
2023/01/12 01:33:34;;;;;;;6.10;2.20;;;;;;;1.90;100.00;94334.47;5035971;28;21576;-66
2023/01/12 01:36:01;;;;;;;5.43;1.90;;;;;;;1.90;100.00;94319.03;5049988;28;20642;-67
2023/01/12 01:38:28;;;;;;;6.60;2.28;;;;;;;1.94;100.00;94327.22;5049376;28;20049;-66
2023/01/12 01:40:56;;;;;;;9.18;2.28;;;;;;;1.94;100.00;94328.00;5049864;28;20037;-67
2023/01/12 01:43:24;;;;;;;7.95;2.90;;;;;;;2.03;100.00;94335.94;5049544;28;20047;-67
2023/01/12 01:46:05;;;;;;;9.67;2.00;;;;;;;2.08;100.00;94335.69;5049869;28;20059;-67
2023/01/12 01:48:35;;;;;;;7.03;2.10;;;;;;;2.10;100.00;94344.25;5049228;28;20398;-66
2023/01/12 01:51:07;;;;;;;10.52;1.70;;;;;;;2.17;100.00;94339.00;5049898;28;20051;-67
2023/01/12 01:53:36;;;;;;;7.15;1.80;;;;;;;2.26;100.00;94344.22;5048676;28;20746;-67
2023/01/12 01:56:26;;;;;;;7.72;1.60;;;;;;;2.42;100.00;94352.31;5049559;28;20053;-67
2023/01/12 01:58:59;;;;;;;6.83;1.57;;;;;;;2.47;100.00;94343.13;5048754;28;20443;-67
2023/01/12 02:01:26;;;;;;;9.88;1.40;;;;;;;2.54;100.00;94354.13;5049450;28;20065;-68
2023/01/12 02:03:55;;;;;;;5.75;1.60;;;;;;;2.60;100.00;94358.13;5050654;28;20105;-67
2023/01/12 02:06:25;;;;;;;6.72;1.38;;;;;;;2.64;100.00;94344.69;5053186;28;20102;-68
2023/01/12 02:08:56;;;;;;;6.20;1.50;;;;;;;2.62;100.00;94331.47;5053456;28;20036;-67
2023/01/12 02:17:23;;;;;;;6.45;1.60;;;;;;;2.56;100.00;94327.47;5053117;28;20041;-67
2023/01/12 02:19:55;;;;;;;7.55;1.60;;;;;;;2.54;100.00;94333.25;5052273;28;20459;-67
2023/01/12 02:22:32;;;;;;;8.43;2.15;;;;;;;2.51;100.00;94325.81;5052683;28;20041;-67
2023/01/12 02:25:22;;;;;;;6.07;1.40;;;;;;;2.58;100.00;94333.31;5053226;28;20045;-67
2023/01/12 02:28:06;;;;;;;7.57;2.13;;;;;;;2.58;100.00;94338.75;5032575;28;20090;-66
2023/01/12 02:31:02;;;;;;;9.32;2.00;;;;;;;2.66;100.00;94332.34;5052048;28;20041;-67
2023/01/12 02:33:44;;;;;;;4.60;1.27;;;;;;;2.74;100.00;94322.44;5052730;28;20370;-67
2023/01/12 02:36:24;;;;;;;12.95;3.05;;;;;;;2.70;100.00;94322.34;5052117;28;20049;-67
2023/01/12 02:38:59;;;;;;;6.47;1.63;;;;;;;2.71;100.00;94306.88;5052566;28;20060;-67
2023/01/12 02:44:57;;;;;;;7.28;1.92;;;;;;;2.81;100.00;94284.63;5052311;28;20053;-67
2023/01/12 02:47:41;;;;;;;7.63;1.67;;;;;;;2.82;100.00;94285.41;5040815;28;20045;-67
2023/01/12 02:50:14;;;;;;;8.15;1.83;;;;;;;2.88;100.00;94278.56;5023490;28;20043;-67
2023/01/12 02:52:47;;;;;;;6.43;1.60;;;;;;;2.94;100.00;94274.44;5052618;28;20143;-67
2023/01/12 02:55:15;;;;;;;6.07;1.58;;;;;;;2.93;100.00;94273.63;5034148;28;20071;-67
2023/01/12 02:57:42;;;;;;;7.57;1.50;;;;;;;3.02;100.00;94273.44;5052488;28;20078;-67
2023/01/12 03:00:10;;;;;;;9.77;1.70;;;;;;;3.05;100.00;94272.69;5052219;28;20041;-67
2023/01/12 03:02:37;;;;;;;7.45;1.67;;;;;;;3.08;100.00;94263.84;5052265;28;20049;-67
2023/01/12 03:05:04;;;;;;;7.77;1.70;;;;;;;3.01;100.00;94250.16;5052460;28;20047;-67
2023/01/12 03:07:42;;;;;;;7.38;1.80;;;;;;;3.00;100.00;94251.31;5052087;28;20103;-67
2023/01/12 03:10:28;;;;;;;11.30;1.45;;;;;;;3.05;100.00;94266.50;5051886;28;20047;-67
2023/01/12 03:12:59;;;;;;;5.15;1.20;;;;;;;3.09;100.00;94265.41;5052256;28;20103;-67
2023/01/12 03:15:30;;;;;;;6.28;1.50;;;;;;;3.17;100.00;94258.97;5051329;28;20059;-67
2023/01/12 03:18:02;;;;;;;5.60;1.40;;;;;;;3.20;100.00;94271.06;5052176;28;20110;-66
2023/01/12 03:20:37;;;;;;;4.15;1.10;;;;;;;3.18;100.00;94271.41;5051813;28;20047;-67
2023/01/12 03:23:27;;;;;;;7.03;1.23;;;;;;;3.15;100.00;94274.03;5034389;28;20060;-67
2023/01/12 03:25:56;;;;;;;8.55;1.60;;;;;;;3.12;100.00;94262.00;5050916;28;20367;-67
2023/01/12 03:28:31;;;;;;;7.80;1.70;;;;;;;3.10;100.00;94263.47;5051431;28;20037;-67
2023/01/12 03:31:09;;;;;;;9.30;1.80;;;;;;;3.12;100.00;94277.47;5052058;28;20059;-67
2023/01/12 03:33:39;;;;;;;7.63;1.33;;;;;;;3.10;100.00;94274.31;5033291;28;20474;-67
2023/01/12 03:36:22;;;;;;;7.40;1.42;;;;;;;3.09;100.00;94265.41;5051949;28;20044;-67
2023/01/12 03:39:10;;;;;;;5.22;1.40;;;;;;;3.04;100.00;94264.91;5050610;28;20094;-67
2023/01/12 03:41:48;;;;;;;7.47;1.30;;;;;;;3.09;100.00;94268.13;5050961;28;20467;-67
2023/01/12 03:44:37;;;;;;;7.57;1.47;;;;;;;3.05;100.00;94256.44;5051079;28;20047;-65
2023/01/12 03:47:13;;;;;;;9.00;1.38;;;;;;;3.09;100.00;94248.38;5050265;28;20045;-66
2023/01/12 03:50:05;;;;;;;5.07;1.45;;;;;;;3.19;100.00;94248.56;5050589;28;20455;-66
2023/01/12 03:52:35;;;;;;;6.15;1.20;;;;;;;3.18;100.00;94240.78;5044201;28;20052;-65
2023/01/12 03:55:06;;;;;;;7.45;1.60;;;;;;;3.20;100.00;94233.88;5051612;28;20037;-66
2023/01/12 03:57:34;;;;;;;6.37;1.30;;;;;;;3.18;100.00;94238.09;5050483;28;21562;-66
2023/01/12 04:00:04;;;;;;;10.00;1.15;;;;;;;3.16;100.00;94240.38;5051600;28;20041;-66
2023/01/12 04:02:34;;;;;;;7.07;1.30;;;;;;;3.18;100.00;94233.44;5032789;28;20102;-65
2023/01/12 04:05:01;;;;;;;7.13;1.48;;;;;;;3.24;100.00;94233.94;5050458;28;20041;-68
2023/01/12 04:07:28;;;;;;;6.85;1.73;;;;;;;3.34;100.00;94237.94;5050882;28;20082;-67
2023/01/12 04:09:56;;;;;;;8.77;1.60;;;;;;;3.35;100.00;94248.44;5049680;28;20045;-66
2023/01/12 04:12:22;;;;;;;6.00;1.23;;;;;;;3.36;100.00;94249.22;5050439;28;20048;-66
2023/01/12 04:14:49;;;;;;;10.45;1.50;;;;;;;3.36;100.00;94241.88;5054093;28;20455;-67
2023/01/12 04:17:16;;;;;;;8.60;1.33;;;;;;;3.46;100.00;94240.50;5053245;28;20041;-66
2023/01/12 04:19:42;;;;;;;8.00;1.40;;;;;;;3.50;100.00;94243.25;5052899;28;20098;-66
2023/01/12 04:25:00;;;;;;;5.45;1.38;;;;;;;3.55;100.00;94243.75;5051262;28;20047;-70
2023/01/12 04:27:27;;;;;;;8.52;1.50;;;;;;;3.56;100.00;94244.53;5031864;28;20063;-66
2023/01/12 04:29:54;;;;;;;6.10;1.30;;;;;;;3.63;100.00;94252.03;5050813;28;20045;-67
2023/01/12 04:32:21;;;;;;;5.90;1.50;;;;;;;3.57;100.00;94249.59;5050238;28;20044;-66
2023/01/12 04:34:47;;;;;;;5.40;1.20;;;;;;;3.63;100.00;94239.22;5050614;28;20082;-67
2023/01/12 04:37:14;;;;;;;5.18;1.10;;;;;;;3.67;100.00;94225.72;5050144;28;20047;-66
2023/01/12 04:39:41;;;;;;;5.00;1.30;;;;;;;3.65;100.00;94239.66;5050712;28;20405;-67
2023/01/12 04:42:59;;;;;;;6.15;1.55;;;;;;;3.62;100.00;94224.06;5049967;28;20067;-66
2023/01/12 04:44:54;;;;;;;6.78;1.40;;;;;;;3.63;100.00;94238.44;5050555;28;20049;-67
2023/01/12 04:47:21;;;;;;;6.93;1.30;;;;;;;3.64;100.00;94229.16;5048629;28;20044;-67
2023/01/12 04:49:48;;;;;;;8.13;1.15;;;;;;;3.62;100.00;94234.94;5050405;28;20037;-66
2023/01/12 04:52:14;;;;;;;11.18;1.60;;;;;;;3.66;100.00;94256.69;5049757;28;20044;-66
2023/01/12 04:54:41;;;;;;;6.13;1.55;;;;;;;3.70;100.00;94250.22;5050248;28;20090;-66
2023/01/12 04:57:08;;;;;;;10.88;1.40;;;;;;;3.73;100.00;94249.47;5049537;28;20405;-67
2023/01/12 04:59:34;;;;;;;6.33;1.40;;;;;;;3.73;100.00;94249.47;5032661;28;20059;-67
2023/01/12 05:02:01;;;;;;;5.20;1.20;;;;;;;3.73;100.00;94235.91;5050145;28;20053;-66
2023/01/12 05:04:28;;;;;;;6.00;1.50;;;;;;;3.75;100.00;94232.81;5049852;28;20071;-67
2023/01/12 05:06:54;;;;;;;7.38;1.40;;;;;;;3.76;100.00;94231.66;5049951;28;20048;-66
2023/01/12 05:12:06;;;;;;;6.73;1.10;;;;;;;3.71;100.00;94230.03;5050345;28;20045;-66
2023/01/12 05:14:33;;;;;;;5.90;1.25;;;;;;;3.74;100.00;94231.25;5049139;28;20622;-66
2023/01/12 05:16:59;;;;;;;5.35;1.30;;;;;;;3.71;100.00;94230.03;5050326;28;20049;-67
2023/01/12 05:19:26;;;;;;;6.00;1.17;;;;;;;3.63;100.00;94231.09;5049689;28;20592;-66
2023/01/12 05:21:53;;;;;;;7.40;1.70;;;;;;;3.66;100.00;94226.84;5049898;28;20036;-68
2023/01/12 05:24:20;;;;;;;6.53;1.33;;;;;;;3.66;100.00;94229.56;5049272;28;20452;-68
2023/01/12 05:26:46;;;;;;;5.03;1.10;;;;;;;3.65;100.00;94228.78;5049220;28;20130;-68
2023/01/12 05:29:13;;;;;;;4.70;1.50;;;;;;;3.64;100.00;94221.78;5049417;28;20039;-66
2023/01/12 05:31:40;;;;;;;8.02;1.50;;;;;;;3.63;100.00;94227.59;5049879;28;20122;-66
2023/01/12 05:34:07;;;;;;;6.00;1.23;;;;;;;3.70;100.00;94227.69;5032350;28;20102;-67
2023/01/12 05:36:33;;;;;;;8.10;1.47;;;;;;;3.65;100.00;94219.88;5031289;28;20528;-67
2023/01/12 05:39:00;;;;;;;4.22;1.15;;;;;;;3.70;100.00;94230.41;5052742;28;20406;-66
2023/01/12 05:41:27;;;;;;;6.78;1.70;;;;;;;3.68;100.00;94238.94;5053423;28;20044;-67
2023/01/12 05:43:53;;;;;;;5.80;1.45;;;;;;;3.73;100.00;94249.47;5053938;28;20122;-67
2023/01/12 05:46:22;;;;;;;5.93;1.25;;;;;;;3.75;100.00;94233.59;5051747;28;20446;-66
2023/01/12 05:48:50;;;;;;;8.40;1.47;;;;;;;3.77;100.00;94228.59;5053590;28;20048;-66
2023/01/12 05:51:18;;;;;;;7.20;2.30;;;;;;;3.74;100.00;94228.53;5053045;28;20049;-66
2023/01/12 05:53:44;;;;;;;6.15;1.92;;;;;;;3.79;100.00;94222.81;5053398;28;20048;-67
2023/01/12 05:56:26;;;;;;;5.35;1.35;;;;;;;3.79;100.00;94226.28;5052879;28;20441;-67
2023/01/12 05:58:55;;;;;;;6.30;1.35;;;;;;;3.69;100.00;94231.56;5053356;28;20045;-67
2023/01/12 06:01:22;;;;;;;4.20;1.00;;;;;;;3.66;100.00;94229.56;5052925;28;20467;-66
2023/01/12 06:03:50;;;;;;;6.28;1.15;;;;;;;3.67;100.00;94234.63;5053300;28;20067;-66
2023/01/12 06:06:19;;;;;;;8.45;1.70;;;;;;;3.62;100.00;94234.94;5052659;28;20474;-66
2023/01/12 06:08:46;;;;;;;6.78;1.30;;;;;;;3.66;100.00;94224.91;5053180;28;20060;-67
2023/01/12 06:13:59;;;;;;;5.67;1.30;;;;;;;3.67;100.00;94239.28;5052817;28;20396;-67
2023/01/12 06:16:27;;;;;;;6.32;1.08;;;;;;;3.63;100.00;94227.59;5052711;28;20511;-66
2023/01/12 06:18:55;;;;;;;5.72;1.17;;;;;;;3.66;100.00;94240.41;5052675;28;20037;-67
2023/01/12 06:21:22;;;;;;;4.82;1.10;;;;;;;3.63;100.00;94235.72;5052107;28;20366;-66
2023/01/12 06:23:49;;;;;;;7.38;1.10;;;;;;;3.62;100.00;94226.00;5035141;28;20041;-66
2023/01/12 06:26:16;;;;;;;5.97;1.33;;;;;;;3.58;100.00;94232.19;5052236;28;20413;-67
2023/01/12 06:28:42;;;;;;;4.95;1.10;;;;;;;3.59;100.00;94235.66;5052058;28;20044;-67
2023/01/12 06:31:12;;;;;;;5.38;1.60;;;;;;;3.57;100.00;94224.41;5052210;28;20071;-67
2023/01/12 06:33:39;;;;;;;6.32;1.35;;;;;;;3.62;100.00;94226.00;5052753;28;20493;-67
2023/01/12 06:36:06;;;;;;;6.15;1.20;;;;;;;3.56;100.00;94212.75;5052705;28;20045;-66
2023/01/12 06:38:33;;;;;;;6.57;1.30;;;;;;;3.57;100.00;94208.13;5034067;28;20090;-66
2023/01/12 06:41:02;;;;;;;4.97;1.27;;;;;;;3.57;100.00;94217.03;5052523;28;20041;-66
2023/01/12 06:43:29;;;;;;;6.53;1.13;;;;;;;3.60;100.00;94207.38;5052266;28;20158;-66
2023/01/12 06:45:56;;;;;;;3.80;1.00;;;;;;;3.61;100.00;94214.38;5052579;28;20053;-66
2023/01/12 06:48:24;;;;;;;5.53;1.00;;;;;;;3.60;100.00;94201.94;5045359;28;20527;-65
2023/01/12 06:50:57;;;;;;;4.07;1.30;;;;;;;3.65;100.00;94196.22;5048533;28;20098;-66
2023/01/12 06:53:24;;;;;;;7.50;1.30;;;;;;;3.68;100.00;94195.50;5052131;28;20459;-67
2023/01/12 06:55:51;;;;;;;7.30;1.38;;;;;;;3.70;100.00;94190.50;5052277;28;20041;-65
2023/01/12 06:58:18;;;;;;;8.65;1.00;;;;;;;3.75;100.00;94179.31;5051762;28;20041;-65
2023/01/12 07:00:44;;;;;;;6.20;1.40;;;;;;;3.72;100.00;94184.69;5051955;28;20033;-67
2023/01/12 07:03:20;;;;;;;7.17;1.20;;;;;;;3.81;100.00;94185.22;5051929;28;20492;-67
2023/01/12 07:05:47;;;;;;;8.48;1.40;;;;;;;3.80;100.00;94181.72;5051221;28;20041;-67
2023/01/12 07:08:17;;;;;;;5.10;1.33;;;;;;;3.81;100.00;94190.66;5051406;28;20143;-66
2023/01/12 07:10:45;;;;;;;6.07;1.17;;;;;;;3.87;99.84;94183.75;5051977;28;20041;-67
2023/01/12 07:13:12;;;;;;;6.13;1.20;;;;;;;3.90;100.00;94180.28;5047926;28;20056;-66
2023/01/12 07:15:39;;;;;;;6.67;1.10;;;;;;;3.87;100.00;94172.88;5042713;28;20048;-66
2023/01/12 07:18:06;;;;;;;5.38;1.00;;;;;;;3.91;100.00;94175.66;5047553;28;20059;-66
2023/01/12 07:20:32;;;;;;;4.88;1.35;;;;;;;3.89;100.00;94178.75;5042960;28;20047;-66
2023/01/12 07:22:59;;;;;;;5.90;1.10;;;;;;;3.91;100.00;94181.88;5051901;28;20105;-66
2023/01/12 07:25:26;;;;;;;4.80;1.40;;;;;;;3.93;100.00;94186.94;5050981;28;20041;-67
2023/01/12 07:27:55;;;;;;;5.27;1.10;;;;;;;3.96;100.00;94184.28;5051229;28;20045;-66
2023/01/12 07:30:24;;;;;;;6.25;1.73;;;;;;;4.00;100.00;94195.16;5051237;28;20090;-65
2023/01/12 07:32:51;;;;;;;4.95;1.20;;;;;;;4.03;100.00;94188.25;5051495;28;20094;-66
2023/01/12 07:35:18;;;;;;;4.88;1.00;;;;;;;4.08;100.00;94191.41;5050870;28;20121;-66
2023/01/12 07:37:49;;;;;;;4.95;1.25;;;;;;;4.15;99.47;94198.88;5051465;28;20049;-66
2023/01/12 07:40:16;;;;;;;4.87;1.10;;;;;;;4.19;99.11;94180.69;5050892;28;20053;-66
2023/01/12 07:42:43;;;;;;;5.03;0.88;;;;;;;4.22;98.98;94188.09;5051058;28;20049;-66
2023/01/12 07:45:11;;;;;;;4.25;1.30;;;;;;;4.24;98.36;94185.78;5050931;28;20477;-66
2023/01/12 07:47:38;;;;;;;4.68;0.90;;;;;;;4.30;98.40;94181.59;5051271;28;20044;-66
2023/01/12 07:50:06;;;;;;;5.53;1.25;;;;;;;4.28;98.63;94183.91;5051207;28;20033;-66
2023/01/12 07:52:33;;;;;;;7.53;1.23;;;;;;;4.32;97.46;94184.72;5050660;28;20086;-66
2023/01/12 07:55:00;;;;;;;4.65;1.25;;;;;;;4.27;98.34;94178.88;5051417;28;20527;-66
2023/01/12 07:57:28;;;;;;;4.72;1.13;;;;;;;4.24;98.47;94174.16;5050214;28;20489;-66
2023/01/12 07:59:54;;;;;;;5.28;1.15;;;;;;;4.21;98.08;94162.09;5049905;28;20094;-66
2023/01/12 08:02:21;;;;;;;5.13;1.48;;;;;;;4.19;99.04;94176.03;5050595;28;20041;-66
2023/01/12 08:04:48;;;;;;;3.97;1.03;;;;;;;4.23;98.42;94178.81;5054044;28;20051;-66
2023/01/12 08:07:15;;;;;;;5.45;1.55;;;;;;;4.28;98.25;94183.13;5055041;28;20045;-67
2023/01/12 08:09:41;;;;;;;6.63;1.73;;;;;;;4.29;97.49;94190.16;5053761;28;20045;-67
2023/01/12 08:12:08;;;;;;;4.88;1.40;;;;;;;4.30;98.39;94184.31;5051493;28;20043;-66
2023/01/12 08:14:37;;;;;;;7.32;1.77;;;;;;;4.35;98.76;94173.13;5051259;28;20045;-66
2023/01/12 08:17:14;;;;;;;2.80;1.10;;;;;;;4.38;97.62;94179.75;5043440;28;20067;-66
2023/01/12 08:19:49;;;;;;;4.85;1.20;;;;;;;4.33;99.54;94171.94;5049947;28;20063;-66
2023/01/12 08:22:21;;;;;;;3.55;1.30;;;;;;;4.34;99.95;94170.78;5050401;28;20041;-65
2023/01/12 08:24:54;;;;;;;3.75;1.05;;;;;;;4.31;100.00;94157.97;5050759;28;20045;-66
2023/01/12 08:27:25;;;;;;;4.40;1.40;;;;;;;4.38;99.44;94168.91;5050040;28;20044;-66
2023/01/12 08:29:55;;;;;;;5.03;1.23;;;;;;;4.38;99.96;94166.94;5050640;28;20071;-66
2023/01/12 08:32:23;;;;;;;5.28;1.17;;;;;;;4.36;100.00;94185.56;5050246;28;20397;-65
2023/01/12 08:34:52;;;;;;;4.97;1.50;;;;;;;4.38;100.00;94171.63;5050151;28;20504;-66
2023/01/12 08:37:22;;;;;;;4.57;1.30;;;;;;;4.33;99.94;94167.28;5049760;28;20067;-66
2023/01/12 08:39:50;;;;;;;6.65;1.35;;;;;;;4.34;100.00;94165.34;5050534;28;20037;-66
2023/01/12 08:42:18;;;;;;;3.87;1.10;;;;;;;4.44;100.00;94172.84;5050052;28;20063;-66
2023/01/12 08:44:45;;;;;;;4.85;1.30;;;;;;;4.44;98.14;94177.50;5050174;28;20378;-66
2023/01/12 08:47:21;;;;;;;6.03;1.30;;;;;;;4.45;98.43;94177.16;5031828;28;20041;-66
2023/01/12 08:49:48;;;;;;;3.38;0.90;;;;;;;4.48;97.80;94170.19;5050551;28;20045;-66
2023/01/12 08:52:15;;;;;;;4.32;1.17;;;;;;;4.52;97.64;94169.06;5049791;28;20106;-66
2023/01/12 08:54:42;;;;;;;4.93;1.13;;;;;;;4.56;97.07;94164.44;5050476;28;20037;-66
2023/01/12 08:57:09;;;;;;;5.20;1.08;;;;;;;4.55;97.10;94164.84;5049310;28;20056;-66
2023/01/12 08:59:36;;;;;;;4.25;1.35;;;;;;;4.53;96.88;94172.59;5050095;28;20459;-66
2023/01/12 09:02:03;;;;;;;4.63;1.23;;;;;;;4.61;97.23;94168.78;5050024;28;20416;-66
2023/01/12 09:04:30;;;;;;;4.60;1.33;;;;;;;4.65;96.80;94166.91;5049748;28;20401;-66
2023/01/12 09:06:57;;;;;;;4.07;1.50;;;;;;;4.72;96.10;94158.81;5032468;28;20106;-66
2023/01/12 09:09:25;;;;;;;6.43;1.20;;;;;;;4.82;96.03;94181.06;5031822;28;20375;-65
2023/01/12 09:11:52;;;;;;;3.97;1.30;;;;;;;4.74;95.08;94172.81;5049522;28;20053;-66
2023/01/12 09:14:19;;;;;;;3.92;1.40;;;;;;;4.63;96.43;94165.69;5049353;28;20104;-66
2023/01/12 09:16:45;;;;;;;3.58;1.35;;;;;;;4.71;95.53;94183.63;5048951;28;20455;-67
2023/01/12 09:19:13;;;;;;;4.10;1.10;;;;;;;4.85;95.57;94177.56;5049741;28;20055;-66
2023/01/12 09:21:40;;;;;;;6.13;1.60;;;;;;;4.76;95.08;94186.81;5049987;28;20033;-65
2023/01/12 09:24:08;;;;;;;4.65;1.83;;;;;;;4.54;96.16;94190.44;5049789;28;20037;-66
2023/01/12 09:26:38;;;;;;;6.40;1.15;;;;;;;4.58;96.93;94192.03;5048453;28;20871;-66
2023/01/12 09:29:05;;;;;;;3.65;1.60;;;;;;;4.56;97.78;94190.84;5050003;28;20051;-66
2023/01/12 09:31:33;;;;;;;8.80;1.60;;;;;;;4.63;97.58;94182.78;5049543;28;20041;-66
2023/01/12 09:34:00;;;;;;;4.75;1.55;;;;;;;4.67;97.12;94180.09;5049685;28;20041;-66
2023/01/12 09:36:30;;;;;;;4.47;1.40;;;;;;;4.54;97.80;94182.28;5049231;28;20033;-66
2023/01/12 09:38:57;;;;;;;4.07;1.20;;;;;;;4.68;97.43;94178.97;5049949;28;20046;-66
2023/01/12 09:47:49;;;;;;;3.75;1.08;;;;;;;4.88;97.10;94177.63;5049345;28;20110;-66
2023/01/12 09:50:24;;;;;;;3.17;1.13;;;;;;;4.88;95.93;94177.63;5032497;28;20068;-66
2023/01/12 09:52:54;;;;;;;2.85;0.98;;;;;;;4.91;95.49;94187.75;5049978;28;20037;-66
2023/01/12 09:55:28;;;;;;;3.55;0.93;;;;;;;4.97;96.90;94185.47;5049070;28;20094;-66
2023/01/12 09:58:25;;;;;;;3.73;1.10;;;;;;;4.96;96.47;94194.81;5032222;28;20122;-66
2023/01/12 10:00:58;;;;;;;3.45;1.10;;;;;;;4.99;96.43;94207.66;5037749;28;20290;-66
2023/01/12 10:03:30;;;;;;;3.35;1.20;;;;;;;4.98;96.21;94203.38;5048932;28;20548;-66
2023/01/12 10:05:59;;;;;;;6.32;1.30;;;;;;;5.14;95.73;94231.13;5049513;28;20049;-66
2023/01/12 10:08:36;;;;;;;4.47;1.27;;;;;;;5.20;96.06;94217.97;5048849;28;20055;-66
2023/01/12 10:11:16;;;;;;;3.73;1.20;;;;;;;5.15;95.42;94226.47;5049567;28;20045;-67
2023/01/12 10:13:57;;;;;;;3.85;1.10;;;;;;;5.19;95.89;94228.09;5048113;28;20037;-67
2023/01/12 10:16:39;;;;;;;3.75;1.23;;;;;;;5.17;96.31;94215.97;5048248;28;20107;-66
2023/01/12 10:19:34;;;;;;;7.68;1.65;;;;;;;5.21;96.37;94214.09;5040017;28;20115;-67
2023/01/12 10:22:13;;;;;;;4.35;1.10;;;;;;;5.21;96.84;94208.63;5047925;28;20401;-66
2023/01/12 10:24:40;;;;;;;2.90;0.80;;;;;;;5.28;96.53;94206.00;5049400;28;20582;-66
2023/01/12 10:27:13;;;;;;;4.55;1.20;;;;;;;5.15;96.82;94208.22;5052469;28;20413;-66
2023/01/12 10:29:40;;;;;;;5.00;0.98;;;;;;;5.25;95.91;94203.25;5052385;28;21694;-67
2023/01/12 10:32:11;;;;;;;3.40;1.08;;;;;;;5.27;97.09;94207.16;5052788;28;20420;-67
2023/01/12 10:34:51;;;;;;;4.30;1.30;;;;;;;5.31;96.73;94191.66;5051760;28;20675;-67
2023/01/12 10:37:18;;;;;;;3.80;1.10;;;;;;;5.38;97.24;94207.25;5052244;28;20053;-66
2023/01/12 10:39:44;;;;;;;3.30;1.13;;;;;;;5.22;96.88;94183.00;5052711;28;20055;-67
2023/01/12 10:43:17;;;;;;;5.20;1.40;;;;;;;5.34;97.41;94184.69;5052419;28;20037;-67
2023/01/12 10:45:15;;;;;;;3.00;0.90;;;;;;;5.35;97.18;94181.59;5040389;28;20049;-67
2023/01/12 10:47:44;;;;;;;7.38;1.70;;;;;;;5.40;97.04;94183.16;5051592;28;20057;-67
2023/01/12 10:50:19;;;;;;;4.43;1.50;;;;;;;5.40;97.68;94178.50;5051915;28;20114;-66
2023/01/12 10:52:49;;;;;;;2.65;1.00;;;;;;;5.46;96.65;94176.22;5052409;28;20508;-67
2023/01/12 10:55:18;;;;;;;3.17;1.10;;;;;;;5.40;96.62;94164.91;5051917;28;20049;-66
2023/01/12 10:57:47;;;;;;;4.88;1.00;;;;;;;5.52;97.29;94160.34;5052422;28;20041;-67
2023/01/12 11:00:26;;;;;;;2.45;0.95;;;;;;;5.50;97.41;94155.25;5051892;28;20041;-66
2023/01/12 11:02:53;;;;;;;4.67;0.70;;;;;;;5.54;96.70;94156.06;5052373;28;20041;-66
2023/01/12 11:05:32;;;;;;;2.45;0.80;;;;;;;5.53;96.62;94161.88;5051578;28;20053;-66
2023/01/12 11:07:59;;;;;;;4.88;1.35;;;;;;;5.59;97.83;94166.63;5052439;28;20040;-67
2023/01/12 11:10:34;;;;;;;5.57;1.05;;;;;;;5.65;98.02;94166.25;5051674;28;20059;-66
2023/01/12 11:13:04;;;;;;;2.70;1.00;;;;;;;5.51;98.26;94150.59;5052392;28;20074;-66
2023/01/12 11:15:37;;;;;;;3.57;1.00;;;;;;;5.39;100.00;94151.66;5051515;28;20045;-67
2023/01/12 11:18:13;;;;;;;4.43;1.15;;;;;;;5.57;99.92;94144.44;5051885;28;20033;-66
2023/01/12 11:20:46;;;;;;;4.13;1.42;;;;;;;5.65;99.25;94142.53;5051131;28;20858;-66
2023/01/12 11:23:19;;;;;;;3.53;1.05;;;;;;;5.80;98.20;94130.56;5038161;28;20056;-67
2023/01/12 11:25:48;;;;;;;2.55;1.00;;;;;;;5.74;98.37;94123.16;5051415;28;20102;-68
2023/01/12 11:28:28;;;;;;;3.83;0.77;;;;;;;5.66;98.92;94124.25;5031483;28;20041;-66
2023/01/12 11:30:57;;;;;;;2.78;1.00;;;;;;;5.69;99.23;94137.09;5031953;28;20064;-67
2023/01/12 11:33:31;;;;;;;3.53;1.33;;;;;;;5.68;99.07;94125.44;5031523;28;20490;-67
2023/01/12 11:36:06;;;;;;;11.35;4.55;;;;;;;5.76;98.65;94126.28;5031424;28;20038;-66
2023/01/12 11:38:42;;;;;;;3.72;1.25;;;;;;;5.65;98.44;94125.41;5030966;28;20049;-66
2023/01/12 11:41:40;;;;;;;4.33;1.00;;;;;;;5.68;98.91;94128.16;5031595;28;20079;-67
2023/01/12 11:44:27;;;;;;;4.82;1.00;;;;;;;5.77;98.04;94125.09;5029708;28;20429;-67
2023/01/12 11:47:13;;;;;;;2.53;1.10;;;;;;;5.77;97.18;94119.66;5021546;28;20817;-66
2023/01/12 11:49:43;;;;;;;3.95;1.00;;;;;;;5.92;97.63;94115.88;5031130;28;20615;-66
2023/01/12 11:52:12;;;;;;;4.47;1.15;;;;;;;6.04;96.72;94122.16;5031746;28;20397;-66
2023/01/12 11:54:40;;;;;;;3.77;0.97;;;;;;;6.20;94.94;94106.31;5037576;28;20098;-66
2023/01/12 11:57:34;;;;;;;2.97;0.90;;;;;;;6.09;94.44;94114.41;5035680;28;20448;-66
2023/01/12 12:00:00;;;;;;;3.30;1.05;;;;;;;6.06;94.88;94085.22;5019521;28;20398;-66
2023/01/12 12:02:40;;;;;;;4.13;1.25;;;;;;;6.13;94.40;94085.25;5031095;28;20114;-66
2023/01/12 12:05:33;;;;;;;4.50;1.55;;;;;;;6.13;94.76;94090.69;5019856;28;20041;-66
2023/01/12 12:08:39;;;;;;;2.53;0.97;;;;;;;6.06;94.98;94103.53;5029154;28;20856;-66
2023/01/12 12:11:16;;;;;;;6.35;1.35;;;;;;;5.96;95.28;94081.28;5030368;28;20935;-66
2023/01/12 12:14:07;;;;;;;3.35;1.08;;;;;;;6.00;94.55;94070.41;5030189;28;21769;-66
2023/01/12 12:17:06;;;;;;;3.63;1.20;;;;;;;6.10;94.02;94077.84;5030753;28;20037;-66
2023/01/12 12:19:56;;;;;;;3.35;1.35;;;;;;;6.05;94.46;94070.03;5003624;28;21539;-66
2023/01/12 12:22:57;;;;;;;3.40;0.80;;;;;;;6.07;94.17;94070.41;5030662;28;20579;-66
2023/01/12 12:25:48;;;;;;;3.78;1.10;;;;;;;6.08;95.31;94071.22;5030598;28;20049;-67